Current Weather

Norman Y Mineta San Jose Intl

San Jose, California (KSJC)

Report from: Tuesday, February 27, 2024 2:53 AM PST
Current time: Tuesday, February 27, 2024 3:14 AM PST

Nearby weather – Weather history – Daily summaries
Weather forecast

Temperature9.4°C (48.9°F)
Wind chill8.9°C (48.1°F)
Dew point6.1°C (43.0°F)
Winds 3 kts (1.5 m/s, 3.5 mph) South (170°)
Visibility10 mi. (16.1 km)
Clouds Sky clear
Altimeter30.01 in.Hg (1016 mB)
Relative humidity80 %
Density altitude-637 ft. (-194 m)
Sea-level pressure101.6 kPa (1016 mB, 30.01 in.Hg)
Remarks Fully automated report
System requires maintenance
Automated weather observing station with precipitation discriminator
Flight conditions Visual Meteorological Conditions
Raw dataKSJC 271053Z AUTO 17003KT 10SM CLR 09/06 A3001 RMK AO2 SLP163 T00940061 $
An error has occurred. This application may no longer respond until reloaded. Reload 🗙